createdAt,value
2022-09-13T00:02:27.464Z,22.80
2022-09-13T00:04:58.569Z,22.70
2022-09-13T00:07:29.405Z,22.70
2022-09-13T00:10:00.246Z,22.60
2022-09-13T00:12:31.145Z,22.80
2022-09-13T00:15:02.988Z,22.70
2022-09-13T00:17:33.932Z,22.60
2022-09-13T00:20:05.478Z,22.50
2022-09-13T00:22:37.340Z,22.30
2022-09-13T00:25:08.810Z,22.00
2022-09-13T00:27:39.698Z,22.10
2022-09-13T00:30:12.622Z,22.10
2022-09-13T00:32:43.518Z,22.00
2022-09-13T00:35:14.506Z,22.00
2022-09-13T00:37:45.395Z,22.00
2022-09-13T00:40:16.663Z,22.00
2022-09-13T00:42:47.682Z,22.00
2022-09-13T00:45:19.243Z,22.30
2022-09-13T00:47:59.252Z,22.30
2022-09-13T00:50:46.039Z,22.40
2022-09-13T00:53:25.164Z,22.30
2022-09-13T00:56:05.722Z,22.20
2022-09-13T00:59:08.840Z,22.20
2022-09-13T01:01:53.591Z,22.00
2022-09-13T01:04:27.901Z,21.90
2022-09-13T01:07:08.802Z,21.90
2022-09-13T01:09:44.177Z,21.70
2022-09-13T01:12:48.520Z,21.80
2022-09-13T01:15:19.482Z,21.80
2022-09-13T01:17:54.743Z,21.90
2022-09-13T01:20:46.305Z,22.00
2022-09-13T01:23:57.561Z,21.90
2022-09-13T01:26:43.310Z,21.90
2022-09-13T01:29:37.119Z,21.80
2022-09-13T01:32:31.339Z,21.70
2022-09-13T01:35:05.087Z,21.60
2022-09-13T01:37:55.055Z,21.60
2022-09-13T01:41:11.037Z,21.40
2022-09-13T01:44:12.328Z,21.50
2022-09-13T01:47:45.569Z,21.50
2022-09-13T01:50:42.331Z,21.60
2022-09-13T01:53:37.117Z,21.50
2022-09-13T01:56:24.619Z,21.70
2022-09-13T01:59:41.845Z,21.50
2022-09-13T02:02:21.585Z,21.50
2022-09-13T02:05:01.540Z,21.50
2022-09-13T02:07:41.044Z,21.50
2022-09-13T02:10:34.250Z,21.70
2022-09-13T02:13:13.434Z,21.70
2022-09-13T02:15:49.212Z,21.70
2022-09-13T02:18:36.086Z,21.90
2022-09-13T02:21:22.699Z,21.90
2022-09-13T02:24:08.533Z,22.10
2022-09-13T02:26:42.083Z,21.90
2022-09-13T02:29:18.231Z,22.00
2022-09-13T02:32:04.598Z,21.90
2022-09-13T02:34:43.319Z,21.90
2022-09-13T02:37:15.021Z,22.10
2022-09-13T02:39:57.629Z,21.90
2022-09-13T02:43:19.232Z,22.20
2022-09-13T02:46:10.097Z,21.80
2022-09-13T02:49:20.186Z,21.70
2022-09-13T02:52:43.365Z,21.50
2022-09-13T02:55:16.950Z,21.50
2022-09-13T02:58:15.152Z,21.40
2022-09-13T03:00:47.280Z,21.30
2022-09-13T03:03:18.218Z,21.70
2022-09-13T03:05:49.363Z,22.00
2022-09-13T03:08:22.295Z,22.00
2022-09-13T03:11:16.003Z,21.70
2022-09-13T03:14:42.335Z,21.80
2022-09-13T03:17:25.230Z,21.60
2022-09-13T03:20:12.644Z,21.80
2022-09-13T03:23:10.976Z,21.50
2022-09-13T03:26:07.890Z,21.80
2022-09-13T03:28:51.070Z,21.40
2022-09-13T03:31:37.267Z,21.30
2022-09-13T03:34:17.519Z,21.40
2022-09-13T03:36:56.399Z,21.90
2022-09-13T03:39:57.922Z,21.70
2022-09-13T03:42:50.616Z,21.60
2022-09-13T03:45:27.500Z,21.70
2022-09-13T03:47:59.078Z,21.70
2022-09-13T03:50:31.750Z,21.40
2022-09-13T03:53:11.603Z,21.10
2022-09-13T03:55:43.803Z,21.20
2022-09-13T03:58:19.022Z,21.00
2022-09-13T04:00:50.150Z,20.80
2022-09-13T04:03:21.362Z,21.20
2022-09-13T04:05:52.200Z,21.10
2022-09-13T04:08:23.149Z,21.00
2022-09-13T04:10:54.569Z,21.00
2022-09-13T04:13:25.491Z,20.80
2022-09-13T04:16:02.456Z,20.80
2022-09-13T04:18:34.064Z,20.90
2022-09-13T04:21:05.477Z,21.00
2022-09-13T04:23:36.518Z,21.00
2022-09-13T04:26:07.392Z,21.20
2022-09-13T04:28:38.273Z,21.00
2022-09-13T04:31:09.206Z,21.00
2022-09-13T04:33:41.258Z,20.90
2022-09-13T04:36:12.132Z,20.90
2022-09-13T04:38:43.139Z,21.20
2022-09-13T04:41:14.124Z,21.40
2022-09-13T04:43:50.110Z,21.30
2022-09-13T04:46:21.123Z,21.00
2022-09-13T04:48:52.547Z,21.10
2022-09-13T04:51:23.629Z,21.10
2022-09-13T04:53:56.008Z,21.00
2022-09-13T04:56:27.884Z,20.80
2022-09-13T04:58:58.740Z,20.90
2022-09-13T05:01:30.031Z,20.70
2022-09-13T05:04:00.952Z,21.10
2022-09-13T05:06:31.817Z,21.40
2022-09-13T05:09:04.055Z,21.40
2022-09-13T05:11:34.952Z,21.70
2022-09-13T05:14:06.472Z,21.70
2022-09-13T05:16:37.381Z,21.40
2022-09-13T05:19:09.762Z,21.30
2022-09-13T05:21:40.682Z,20.70
2022-09-13T05:24:11.940Z,21.20
2022-09-13T05:26:42.971Z,21.40
2022-09-13T05:29:13.986Z,21.50
2022-09-13T05:31:45.052Z,21.40
2022-09-13T05:34:20.050Z,21.40
2022-09-13T05:36:54.229Z,21.30
2022-09-13T05:39:34.041Z,21.00
2022-09-13T05:42:14.710Z,21.40
2022-09-13T05:44:46.117Z,21.90
2022-09-13T05:47:17.117Z,21.60
2022-09-13T05:50:08.842Z,21.30
2022-09-13T05:52:38.951Z,21.10
2022-09-13T05:55:10.197Z,20.90
2022-09-13T05:57:41.103Z,21.00
2022-09-13T06:00:13.177Z,20.70
2022-09-13T06:02:44.178Z,20.90
2022-09-13T06:05:15.324Z,21.30
2022-09-13T06:07:46.643Z,21.40
2022-09-13T06:10:18.123Z,21.30
2022-09-13T06:12:50.850Z,21.50
2022-09-13T06:15:21.703Z,21.90
2022-09-13T06:17:52.579Z,21.80
2022-09-13T06:20:23.471Z,21.90
2022-09-13T06:22:54.345Z,22.00
2022-09-13T06:25:25.379Z,21.60
2022-09-13T06:27:56.220Z,22.00
2022-09-13T06:30:27.141Z,22.10
2022-09-13T06:32:58.121Z,22.10
2022-09-13T06:35:28.964Z,22.20
2022-09-13T06:37:59.851Z,21.60
2022-09-13T06:40:30.824Z,21.70
2022-09-13T06:43:01.994Z,21.40
2022-09-13T06:45:32.825Z,21.50
2022-09-13T06:48:04.159Z,21.40
2022-09-13T06:50:35.083Z,21.70
2022-09-13T06:53:06.039Z,21.90
2022-09-13T06:55:37.050Z,22.00
2022-09-13T06:58:07.879Z,21.80
2022-09-13T07:00:38.899Z,21.80
2022-09-13T07:03:09.778Z,22.10
2022-09-13T07:05:40.678Z,22.30
2022-09-13T07:08:11.542Z,22.00
2022-09-13T07:10:42.413Z,22.30
2022-09-13T07:13:13.362Z,22.40
2022-09-13T07:15:44.287Z,22.80
2022-09-13T07:18:15.137Z,22.70
2022-09-13T07:20:45.999Z,22.70
2022-09-13T07:23:16.868Z,22.90
2022-09-13T07:25:55.996Z,23.20
2022-09-13T07:28:27.545Z,23.10
2022-09-13T07:31:36.521Z,23.30
2022-09-13T07:34:22.675Z,22.30
2022-09-13T07:36:54.372Z,22.40
2022-09-13T07:39:25.295Z,22.90
2022-09-13T07:41:56.164Z,22.80
2022-09-13T07:44:27.085Z,23.20
2022-09-13T07:46:57.940Z,23.40
2022-09-13T07:49:28.825Z,23.00
2022-09-13T07:51:59.661Z,23.50
2022-09-13T07:54:30.966Z,23.50
2022-09-13T07:57:01.837Z,23.30
2022-09-13T07:59:32.760Z,24.10
2022-09-13T08:02:03.695Z,24.00
2022-09-13T08:04:36.409Z,24.60
2022-09-13T08:07:07.508Z,24.70
2022-09-13T08:09:38.381Z,24.40
2022-09-13T08:12:09.236Z,24.60
2022-09-13T08:14:40.113Z,24.70
2022-09-13T08:17:10.959Z,24.90
2022-09-13T08:19:41.983Z,24.80
2022-09-13T08:22:12.886Z,25.00
2022-09-13T08:24:43.754Z,25.50
2022-09-13T08:27:14.675Z,25.40
2022-09-13T08:29:45.710Z,24.70
2022-09-13T08:32:16.608Z,24.80
2022-09-13T08:34:47.490Z,25.10
2022-09-13T08:37:19.545Z,25.30
2022-09-13T08:39:50.451Z,25.30
2022-09-13T08:42:47.088Z,25.40
2022-09-13T08:45:18.247Z,25.50
2022-09-13T08:48:12.347Z,25.30
2022-09-13T08:50:45.138Z,25.40
2022-09-13T08:53:28.723Z,25.80
2022-09-13T08:56:57.360Z,25.90
2022-09-13T08:59:37.530Z,25.80
2022-09-13T09:02:47.801Z,26.10
2022-09-13T09:05:23.860Z,26.60
2022-09-13T09:08:38.301Z,26.70
2022-09-13T09:11:21.653Z,26.80
2022-09-13T09:14:02.062Z,27.20
2022-09-13T09:16:39.011Z,26.70
2022-09-13T09:19:34.584Z,27.50
2022-09-13T09:22:18.731Z,27.40
2022-09-13T09:24:55.203Z,27.30
2022-09-13T09:27:27.371Z,27.60
2022-09-13T09:29:58.806Z,27.70
2022-09-13T09:32:54.347Z,27.70
2022-09-13T09:35:28.202Z,28.40
2022-09-13T09:38:14.763Z,28.60
2022-09-13T09:40:45.928Z,28.70
2022-09-13T09:43:33.401Z,28.40
2022-09-13T09:46:07.329Z,28.70
2022-09-13T09:48:46.326Z,28.80
2022-09-13T09:51:20.164Z,28.30
2022-09-13T09:54:01.955Z,28.90
2022-09-13T09:56:34.542Z,29.00
2022-09-13T09:59:25.784Z,28.90
2022-09-13T10:01:57.849Z,29.10
2022-09-13T10:04:29.855Z,29.30
2022-09-13T10:07:21.796Z,29.10
2022-09-13T10:10:03.974Z,29.20
2022-09-13T10:12:39.781Z,29.30
2022-09-13T10:15:20.873Z,29.40
2022-09-13T10:18:40.377Z,29.60
2022-09-13T10:21:10.802Z,29.80
2022-09-13T10:23:41.665Z,29.90
2022-09-13T10:26:22.307Z,29.90
2022-09-13T10:29:13.732Z,30.00
2022-09-13T10:31:48.218Z,29.80
2022-09-13T10:34:30.035Z,30.00
2022-09-13T10:37:14.811Z,30.00
2022-09-13T10:40:19.139Z,30.10
2022-09-13T10:42:59.701Z,30.40
2022-09-13T10:45:31.931Z,30.60
2022-09-13T10:48:12.441Z,30.80
2022-09-13T10:51:05.184Z,31.10
2022-09-13T10:53:41.866Z,31.60
2022-09-13T10:56:23.576Z,32.20
2022-09-13T10:59:29.586Z,32.60
2022-09-13T11:03:08.980Z,32.30
2022-09-13T11:05:57.971Z,33.40
2022-09-13T11:09:02.160Z,33.40
2022-09-13T11:12:00.742Z,34.40
2022-09-13T11:15:00.169Z,34.40
2022-09-13T11:17:55.930Z,34.70
2022-09-13T11:20:57.656Z,33.70
2022-09-13T11:23:41.329Z,34.10
2022-09-13T11:26:46.739Z,33.50
2022-09-13T11:29:46.932Z,33.60
2022-09-13T11:32:49.940Z,33.40
2022-09-13T11:36:11.882Z,34.00
2022-09-13T11:39:26.264Z,34.10
2022-09-13T11:42:05.819Z,34.40
2022-09-13T11:44:54.806Z,34.00
2022-09-13T11:47:38.103Z,33.60
2022-09-13T11:50:21.562Z,33.60
2022-09-13T11:53:30.361Z,33.80
2022-09-13T11:56:08.951Z,33.70
2022-09-13T11:58:56.837Z,34.00
2022-09-13T12:01:36.349Z,34.10
2022-09-13T12:04:18.218Z,34.50
2022-09-13T12:06:57.617Z,34.20
2022-09-13T12:09:38.533Z,34.10
2022-09-13T12:12:14.077Z,34.30
2022-09-13T12:15:00.868Z,34.70
2022-09-13T12:17:44.092Z,34.80
2022-09-13T12:20:39.815Z,35.30
2022-09-13T12:23:25.291Z,35.10
2022-09-13T12:26:21.928Z,34.80
2022-09-13T12:28:58.480Z,34.30
2022-09-13T12:31:32.847Z,34.40
2022-09-13T12:34:08.209Z,34.60
2022-09-13T12:37:21.515Z,34.70
2022-09-13T12:40:12.205Z,34.50
2022-09-13T12:42:56.268Z,34.60
2022-09-13T12:45:27.140Z,34.80
2022-09-13T12:48:25.712Z,35.30
2022-09-13T12:51:15.702Z,35.20
2022-09-13T12:54:30.150Z,35.10
2022-09-13T12:57:43.414Z,35.30
2022-09-13T13:00:28.404Z,35.70
2022-09-13T13:03:12.073Z,34.90
2022-09-13T13:05:48.629Z,35.00
2022-09-13T13:08:22.223Z,34.70
2022-09-13T13:11:14.451Z,35.10
2022-09-13T13:13:57.727Z,36.10
2022-09-13T13:16:40.658Z,35.50
2022-09-13T13:19:32.861Z,35.40
2022-09-13T13:22:44.315Z,35.50
2022-09-13T13:25:37.821Z,35.40
2022-09-13T13:28:50.599Z,35.40
2022-09-13T13:31:24.586Z,35.20
2022-09-13T13:34:11.066Z,35.40
2022-09-13T13:36:41.988Z,35.10
2022-09-13T13:39:25.090Z,35.20
2022-09-13T13:42:02.289Z,35.50
2022-09-13T13:44:33.093Z,35.10
2022-09-13T13:47:09.787Z,35.30
2022-09-13T13:49:40.781Z,35.40
2022-09-13T13:52:11.893Z,35.60
2022-09-13T13:54:43.101Z,36.00
2022-09-13T13:58:01.537Z,35.50
2022-09-13T14:00:35.560Z,36.00
2022-09-13T14:03:48.016Z,35.70
2022-09-13T14:06:42.663Z,35.90
2022-09-13T14:09:53.007Z,35.40
2022-09-13T14:12:52.080Z,35.40
2022-09-13T14:15:47.387Z,35.00
2022-09-13T14:19:07.473Z,35.20
2022-09-13T14:21:38.513Z,35.30
2022-09-13T14:24:24.471Z,35.20
2022-09-13T14:26:59.724Z,35.20
2022-09-13T14:29:30.947Z,34.90
2022-09-13T14:32:07.124Z,34.90
2022-09-13T14:34:39.193Z,35.20
2022-09-13T14:37:31.945Z,35.10
2022-09-13T14:40:09.061Z,35.00
2022-09-13T14:42:46.904Z,34.80
2022-09-13T14:45:24.608Z,34.90
2022-09-13T14:48:27.649Z,34.90
2022-09-13T14:51:24.044Z,34.90
2022-09-13T14:54:00.441Z,34.90
2022-09-13T14:56:37.110Z,35.00
2022-09-13T14:59:21.872Z,35.00
2022-09-13T15:01:53.242Z,35.30
2022-09-13T15:04:24.722Z,35.00
2022-09-13T15:07:36.869Z,35.10
2022-09-13T15:10:26.236Z,34.90
2022-09-13T15:13:06.119Z,34.70
2022-09-13T15:15:45.353Z,34.40
2022-09-13T15:18:23.842Z,34.10
2022-09-13T15:21:02.825Z,34.10
2022-09-13T15:23:40.533Z,34.30
2022-09-13T15:26:25.686Z,33.90
2022-09-13T15:29:05.625Z,33.70
2022-09-13T15:31:36.540Z,33.60
2022-09-13T15:34:22.332Z,33.50
2022-09-13T15:37:07.066Z,33.40
2022-09-13T15:39:48.472Z,33.40
2022-09-13T15:42:19.464Z,33.30
2022-09-13T15:44:50.286Z,33.40
2022-09-13T15:47:21.683Z,33.30
2022-09-13T15:49:52.876Z,33.10
2022-09-13T15:52:24.049Z,33.00
2022-09-13T15:54:54.872Z,33.00
2022-09-13T15:57:29.110Z,33.00
2022-09-13T16:00:05.580Z,32.90
2022-09-13T16:02:37.441Z,32.70
2022-09-13T16:05:08.780Z,32.60
2022-09-13T16:07:40.879Z,32.70
2022-09-13T16:10:20.322Z,32.60
2022-09-13T16:12:51.627Z,32.50
2022-09-13T16:15:22.616Z,32.50
2022-09-13T16:17:53.423Z,32.40
2022-09-13T16:20:24.431Z,32.30
2022-09-13T16:22:55.332Z,32.30
2022-09-13T16:25:26.307Z,32.30
2022-09-13T16:27:57.517Z,32.30
2022-09-13T16:30:30.553Z,32.10
2022-09-13T16:33:01.598Z,32.30
2022-09-13T16:35:33.001Z,32.20
2022-09-13T16:38:03.846Z,32.20
2022-09-13T16:40:35.042Z,32.10
2022-09-13T16:43:06.039Z,31.90
2022-09-13T16:45:41.368Z,31.80
2022-09-13T16:48:12.543Z,31.90
2022-09-13T16:50:43.447Z,32.00
2022-09-13T16:53:14.279Z,32.00
2022-09-13T16:55:45.992Z,31.90
2022-09-13T16:58:16.831Z,31.70
2022-09-13T17:00:47.838Z,31.60
2022-09-13T17:03:18.661Z,31.50
2022-09-13T17:06:04.505Z,31.30
2022-09-13T17:08:37.977Z,31.30
2022-09-13T17:11:13.090Z,31.20
2022-09-13T17:13:44.343Z,31.00
2022-09-13T17:16:34.512Z,30.90
2022-09-13T17:19:15.137Z,30.90
2022-09-13T17:21:46.751Z,31.00
2022-09-13T17:24:18.424Z,30.90
2022-09-13T17:26:49.362Z,31.00
2022-09-13T17:29:20.783Z,30.90
2022-09-13T17:31:52.851Z,30.80
2022-09-13T17:34:24.151Z,30.70
2022-09-13T17:36:55.220Z,30.90
2022-09-13T17:39:26.142Z,30.70
2022-09-13T17:41:57.059Z,30.60
2022-09-13T17:44:27.924Z,30.50
2022-09-13T17:46:58.874Z,30.50
2022-09-13T17:49:29.779Z,30.40
2022-09-13T17:52:02.471Z,30.30
2022-09-13T17:54:33.473Z,30.20
2022-09-13T17:57:04.500Z,30.00
2022-09-13T17:59:35.351Z,29.90
2022-09-13T18:02:06.770Z,29.80
2022-09-13T18:04:37.637Z,29.80
2022-09-13T18:07:08.499Z,29.70
2022-09-13T18:09:40.588Z,29.80
2022-09-13T18:12:12.199Z,29.80
2022-09-13T18:14:43.030Z,29.70
2022-09-13T18:17:14.027Z,29.80
2022-09-13T18:19:46.661Z,29.80
2022-09-13T18:22:17.999Z,29.60
2022-09-13T18:24:48.857Z,29.60
2022-09-13T18:27:19.773Z,29.70
2022-09-13T18:29:50.633Z,29.60
2022-09-13T18:32:21.505Z,29.50
2022-09-13T18:34:52.522Z,29.40
2022-09-13T18:37:23.411Z,29.40
2022-09-13T18:39:54.388Z,29.40
2022-09-13T18:42:25.320Z,29.50
2022-09-13T18:44:56.169Z,29.30
2022-09-13T18:47:27.045Z,29.20
2022-09-13T18:49:57.869Z,29.20
2022-09-13T18:52:28.744Z,29.20
2022-09-13T18:54:59.613Z,29.30
2022-09-13T18:57:30.611Z,29.80
2022-09-13T19:00:03.402Z,30.00
2022-09-13T19:02:34.482Z,30.10
2022-09-13T19:05:07.100Z,29.90
2022-09-13T19:07:40.661Z,29.90
2022-09-13T19:10:15.922Z,29.80
2022-09-13T19:12:47.046Z,29.50
2022-09-13T19:15:17.895Z,29.30
2022-09-13T19:17:48.783Z,29.10
2022-09-13T19:20:22.666Z,29.00
2022-09-13T19:22:53.799Z,28.90
2022-09-13T19:25:27.741Z,28.80
2022-09-13T19:27:58.582Z,28.80
2022-09-13T19:30:29.438Z,28.70
2022-09-13T19:33:00.330Z,28.70
2022-09-13T19:35:31.186Z,28.70
2022-09-13T19:38:02.225Z,28.70
2022-09-13T19:40:34.156Z,28.70
2022-09-13T19:43:05.317Z,28.60
2022-09-13T19:45:36.182Z,28.50
2022-09-13T19:51:10.336Z,28.30
2022-09-13T19:53:56.503Z,28.40
2022-09-13T19:56:37.971Z,28.20
2022-09-13T19:59:13.515Z,28.20
2022-09-13T20:01:46.750Z,28.30
2022-09-13T20:04:20.954Z,28.40
2022-09-13T20:06:52.428Z,28.10
2022-09-13T20:09:23.318Z,28.10
2022-09-13T20:12:00.225Z,28.10
2022-09-13T20:14:32.543Z,28.10
2022-09-13T20:17:04.281Z,28.20
2022-09-13T20:19:46.408Z,28.10
2022-09-13T20:22:20.681Z,28.00
2022-09-13T20:24:51.577Z,28.10
2022-09-13T20:27:22.514Z,28.20
2022-09-13T20:29:54.271Z,28.00
2022-09-13T20:32:25.288Z,27.90
2022-09-13T20:34:56.183Z,27.90
2022-09-13T20:37:27.608Z,27.80
2022-09-13T20:40:03.114Z,27.70
2022-09-13T20:42:34.450Z,27.60
2022-09-13T20:45:06.141Z,27.70
2022-09-13T20:47:37.063Z,27.90
2022-09-13T20:50:08.447Z,28.00
2022-09-13T20:52:39.334Z,28.20
2022-09-13T20:55:10.287Z,28.10
2022-09-13T20:57:41.687Z,27.90
2022-09-13T21:00:13.163Z,28.10
2022-09-13T21:02:44.323Z,27.90
2022-09-13T21:05:16.130Z,27.60
2022-09-13T21:08:05.500Z,27.80
2022-09-13T21:10:36.396Z,28.00
2022-09-13T21:13:09.674Z,27.80
2022-09-13T21:15:42.218Z,27.40
2022-09-13T21:18:13.767Z,27.40
2022-09-13T21:20:44.681Z,27.30
2022-09-13T21:23:15.553Z,27.80
2022-09-13T21:25:46.443Z,27.40
2022-09-13T21:28:18.689Z,27.30
2022-09-13T21:31:06.050Z,27.20
2022-09-13T21:33:37.105Z,27.20
2022-09-13T21:36:10.027Z,27.10
2022-09-13T21:38:41.075Z,27.00
2022-09-13T21:41:18.254Z,27.00
2022-09-13T21:43:49.841Z,27.00
2022-09-13T21:46:30.001Z,27.40
2022-09-13T21:49:05.166Z,27.30
2022-09-13T21:51:41.486Z,27.00
2022-09-13T21:54:16.683Z,26.80
2022-09-13T21:56:54.123Z,26.90
2022-09-13T21:59:25.145Z,27.00
2022-09-13T22:01:56.074Z,26.90
2022-09-13T22:04:27.648Z,26.90
2022-09-13T22:06:58.623Z,27.00
2022-09-13T22:09:29.653Z,26.90
2022-09-13T22:12:00.982Z,26.90
2022-09-13T22:14:32.001Z,27.00
2022-09-13T22:17:02.958Z,27.50
2022-09-13T22:19:33.969Z,27.90
2022-09-13T22:22:04.842Z,28.00
2022-09-13T22:24:36.540Z,27.20
2022-09-13T22:27:08.441Z,27.20
2022-09-13T22:29:40.462Z,27.00
2022-09-13T22:32:11.284Z,27.00
2022-09-13T22:34:42.360Z,26.90
2022-09-13T22:37:13.251Z,26.80
2022-09-13T22:39:44.143Z,26.70
2022-09-13T22:42:15.051Z,27.00
2022-09-13T22:44:46.045Z,27.00
2022-09-13T22:47:16.856Z,27.00
2022-09-13T22:49:47.729Z,27.40
2022-09-13T22:52:18.662Z,27.00
2022-09-13T22:54:50.887Z,27.00
2022-09-13T22:57:21.695Z,27.30
2022-09-13T22:59:52.734Z,27.30
2022-09-13T23:02:23.601Z,27.00
2022-09-13T23:04:54.593Z,27.30
2022-09-13T23:07:25.450Z,26.80
2022-09-13T23:09:56.302Z,26.70
2022-09-13T23:12:29.747Z,26.50
2022-09-13T23:15:00.620Z,26.30
2022-09-13T23:17:31.737Z,26.40
2022-09-13T23:20:03.280Z,26.30
2022-09-13T23:22:34.118Z,26.30
2022-09-13T23:25:05.644Z,26.10
2022-09-13T23:27:36.730Z,26.20
2022-09-13T23:30:08.408Z,26.20
2022-09-13T23:32:39.306Z,26.10
2022-09-13T23:35:10.270Z,26.40
2022-09-13T23:37:41.207Z,26.50
2022-09-13T23:40:12.161Z,26.40
2022-09-13T23:42:43.192Z,26.00
2022-09-13T23:45:14.308Z,26.00
2022-09-13T23:47:45.180Z,26.00
2022-09-13T23:50:16.324Z,26.10
2022-09-13T23:52:47.176Z,26.00
2022-09-13T23:55:18.101Z,26.00
2022-09-13T23:57:48.942Z,25.90
